createdAt,value
2023-02-09T00:02:16.514Z,73.60
2023-02-09T00:04:44.908Z,73.80
2023-02-09T00:07:12.922Z,74.29
2023-02-09T00:09:41.115Z,73.03
2023-02-09T00:12:28.317Z,73.54
2023-02-09T00:14:58.289Z,73.13
2023-02-09T00:17:26.609Z,73.53
2023-02-09T00:19:56.024Z,73.65
2023-02-09T00:22:24.263Z,72.61
2023-02-09T00:24:52.536Z,71.67
2023-02-09T00:27:21.081Z,70.78
2023-02-09T00:29:49.590Z,71.27
2023-02-09T00:32:19.623Z,71.25
2023-02-09T00:34:48.302Z,71.88
2023-02-09T00:37:16.934Z,73.13
2023-02-09T00:39:45.660Z,73.55
2023-02-09T00:42:15.023Z,74.17
2023-02-09T00:44:43.315Z,74.76
2023-02-09T00:47:11.628Z,75.91
2023-02-09T00:49:41.332Z,76.17
2023-02-09T00:52:10.120Z,76.42
2023-02-09T00:54:38.654Z,77.01
2023-02-09T00:57:06.950Z,77.10
2023-02-09T00:59:35.923Z,78.04
2023-02-09T01:02:04.816Z,78.06
2023-02-09T01:04:33.119Z,77.70
2023-02-09T01:07:02.757Z,77.55
2023-02-09T01:09:31.137Z,77.44
2023-02-09T01:11:59.281Z,77.57
2023-02-09T01:14:27.394Z,78.37
2023-02-09T01:16:55.672Z,77.79
2023-02-09T01:19:23.842Z,78.07
2023-02-09T01:21:52.111Z,78.41
2023-02-09T01:24:21.918Z,78.20
2023-02-09T01:26:50.300Z,79.39
2023-02-09T01:29:21.436Z,78.94
2023-02-09T01:31:50.051Z,78.40
2023-02-09T01:34:19.928Z,78.57
2023-02-09T01:36:48.496Z,78.66
2023-02-09T01:39:16.679Z,78.37
2023-02-09T01:41:46.518Z,77.90
2023-02-09T01:44:52.385Z,77.69
2023-02-09T01:47:21.411Z,77.56
2023-02-09T01:49:52.100Z,78.09
2023-02-09T01:52:24.918Z,77.82
2023-02-09T01:54:57.536Z,77.94
2023-02-09T01:57:32.659Z,78.31
2023-02-09T02:00:04.936Z,78.51
2023-02-09T02:02:33.455Z,78.70
2023-02-09T02:05:01.930Z,78.40
2023-02-09T02:07:37.164Z,78.06
2023-02-09T02:10:06.224Z,78.58
2023-02-09T02:12:37.210Z,78.39
2023-02-09T02:15:05.767Z,78.96
2023-02-09T02:17:48.393Z,79.36
2023-02-09T02:21:01.415Z,79.67
2023-02-09T02:23:37.535Z,80.09
2023-02-09T02:26:30.665Z,79.79
2023-02-09T02:29:41.650Z,80.56
2023-02-09T02:32:20.804Z,80.64
2023-02-09T02:34:55.768Z,80.50
2023-02-09T02:37:42.144Z,80.41
2023-02-09T02:40:23.023Z,81.16
2023-02-09T02:42:57.157Z,81.28
2023-02-09T02:45:35.722Z,81.39
2023-02-09T02:48:14.866Z,82.27
2023-02-09T02:50:49.002Z,82.85
2023-02-09T02:53:19.547Z,83.18
2023-02-09T02:55:50.713Z,83.35
2023-02-09T02:58:23.308Z,84.30
2023-02-09T03:00:53.781Z,84.21
2023-02-09T03:03:26.245Z,85.00
2023-02-09T03:05:55.327Z,85.13
2023-02-09T03:08:23.588Z,85.51
2023-02-09T03:10:52.378Z,85.49
2023-02-09T03:13:38.557Z,86.50
2023-02-09T03:16:20.036Z,86.09
2023-02-09T03:19:01.935Z,85.89
2023-02-09T03:21:42.979Z,86.76
2023-02-09T03:24:21.037Z,86.76
2023-02-09T03:26:53.001Z,86.62
2023-02-09T03:29:25.206Z,87.56
2023-02-09T03:31:53.480Z,87.42
2023-02-09T03:34:23.237Z,88.30
2023-02-09T03:36:55.444Z,88.85
2023-02-09T03:39:23.622Z,88.60
2023-02-09T03:41:51.797Z,89.20
2023-02-09T03:44:29.237Z,89.92
2023-02-09T03:46:59.568Z,90.10
2023-02-09T03:49:31.647Z,90.49
2023-02-09T03:52:00.819Z,90.65
2023-02-09T03:54:29.517Z,91.39
2023-02-09T03:56:58.235Z,91.55
2023-02-09T03:59:26.920Z,91.68
2023-02-09T04:01:56.488Z,91.70
2023-02-09T04:04:26.414Z,91.77
2023-02-09T04:06:56.216Z,92.23
2023-02-09T04:09:24.710Z,92.71
2023-02-09T04:11:53.229Z,92.13
2023-02-09T04:14:21.718Z,92.21
2023-02-09T04:16:50.272Z,91.77
2023-02-09T04:19:18.527Z,92.15
2023-02-09T04:21:46.898Z,91.84
2023-02-09T04:24:16.675Z,92.34
2023-02-09T04:26:44.822Z,92.67
2023-02-09T04:29:12.954Z,92.90
2023-02-09T04:31:41.151Z,92.39
2023-02-09T04:34:09.523Z,91.89
2023-02-09T04:36:37.826Z,92.07
2023-02-09T04:39:06.160Z,91.08
2023-02-09T04:41:35.780Z,92.36
2023-02-09T04:44:03.955Z,92.00
2023-02-09T04:46:31.997Z,90.81
2023-02-09T04:49:01.040Z,89.64
2023-02-09T04:51:29.202Z,88.99
2023-02-09T04:53:57.302Z,88.47
2023-02-09T04:56:25.311Z,89.43
2023-02-09T04:59:12.351Z,90.23
2023-02-09T05:01:40.616Z,89.99
2023-02-09T05:04:08.794Z,90.11
2023-02-09T05:06:36.857Z,90.13
2023-02-09T05:09:05.033Z,89.35
2023-02-09T05:11:33.230Z,89.51
2023-02-09T05:14:02.901Z,90.17
2023-02-09T05:16:31.154Z,90.61
2023-02-09T05:18:59.445Z,90.75
2023-02-09T05:21:27.679Z,91.48
2023-02-09T05:23:55.700Z,91.10
2023-02-09T05:26:23.961Z,90.29
2023-02-09T05:28:52.070Z,89.93
2023-02-09T05:31:21.699Z,90.89
2023-02-09T05:33:50.080Z,90.82
2023-02-09T05:36:18.253Z,91.01
2023-02-09T05:38:46.406Z,91.60
2023-02-09T05:41:36.317Z,90.50
2023-02-09T05:44:04.832Z,90.21
2023-02-09T05:46:34.381Z,90.62
2023-02-09T05:49:02.743Z,89.94
2023-02-09T05:51:30.868Z,90.13
2023-02-09T05:53:58.981Z,89.91
2023-02-09T05:56:27.293Z,90.17
2023-02-09T05:58:55.586Z,88.97
2023-02-09T06:01:23.807Z,88.68
2023-02-09T06:03:53.460Z,88.08
2023-02-09T06:06:21.643Z,87.73
2023-02-09T06:08:50.174Z,88.02
2023-02-09T06:11:19.357Z,87.90
2023-02-09T06:13:47.672Z,87.52
2023-02-09T06:16:15.861Z,86.38
2023-02-09T06:18:44.063Z,86.17
2023-02-09T06:21:13.844Z,84.48
2023-02-09T06:23:41.933Z,84.38
2023-02-09T06:26:11.736Z,84.63
2023-02-09T06:28:40.735Z,84.30
2023-02-09T06:31:09.213Z,83.24
2023-02-09T06:33:38.411Z,83.64
2023-02-09T06:36:08.955Z,83.32
2023-02-09T06:38:39.280Z,83.34
2023-02-09T06:41:08.010Z,82.74
2023-02-09T06:43:36.666Z,83.74
2023-02-09T06:46:08.236Z,82.49
2023-02-09T06:48:36.482Z,82.53
2023-02-09T06:51:09.211Z,82.23
2023-02-09T06:53:39.959Z,81.74
2023-02-09T06:56:09.397Z,80.07
2023-02-09T06:58:38.532Z,79.99
2023-02-09T07:01:08.693Z,80.27
2023-02-09T07:03:36.921Z,79.14
2023-02-09T07:06:06.912Z,79.21
2023-02-09T07:08:35.106Z,77.19
2023-02-09T07:11:05.947Z,75.67
2023-02-09T07:13:34.473Z,75.55
2023-02-09T07:16:04.148Z,75.04
2023-02-09T07:18:32.402Z,74.99
2023-02-09T07:21:02.165Z,74.52
2023-02-09T07:23:30.887Z,74.10
2023-02-09T07:26:05.233Z,72.76
2023-02-09T07:28:33.681Z,72.75
2023-02-09T07:31:05.749Z,72.92
2023-02-09T07:33:34.772Z,72.73
2023-02-09T07:36:05.914Z,72.51
2023-02-09T07:38:34.184Z,72.76
2023-02-09T07:41:02.921Z,73.89
2023-02-09T07:43:33.357Z,73.03
2023-02-09T07:46:02.233Z,71.97
2023-02-09T07:48:30.695Z,72.41
2023-02-09T07:50:59.270Z,71.88
2023-02-09T07:53:28.170Z,69.97
2023-02-09T07:55:56.715Z,69.36
2023-02-09T07:58:24.957Z,69.44
2023-02-09T08:00:54.580Z,69.41
2023-02-09T08:03:28.044Z,68.42
2023-02-09T08:06:01.821Z,67.04
2023-02-09T08:08:29.845Z,66.83
2023-02-09T08:11:00.810Z,66.90
2023-02-09T08:13:33.256Z,67.25
2023-02-09T08:16:07.270Z,65.87
2023-02-09T08:18:40.027Z,66.00
2023-02-09T08:21:12.155Z,65.36
2023-02-09T08:23:42.694Z,64.35
2023-02-09T08:26:14.417Z,64.41
2023-02-09T08:28:45.084Z,64.78
2023-02-09T08:31:18.479Z,64.84
2023-02-09T08:33:48.780Z,63.84
2023-02-09T08:36:18.288Z,62.60
2023-02-09T08:38:46.641Z,63.14
2023-02-09T08:41:20.508Z,61.29
2023-02-09T08:43:50.170Z,61.05
2023-02-09T08:46:20.822Z,60.50
2023-02-09T08:48:49.755Z,60.96
2023-02-09T08:51:18.352Z,60.92
2023-02-09T08:53:52.752Z,60.46
2023-02-09T08:56:21.825Z,60.34
2023-02-09T08:58:50.968Z,58.90
2023-02-09T09:01:20.672Z,59.10
2023-02-09T09:03:49.649Z,58.73
2023-02-09T09:06:17.791Z,59.04
2023-02-09T09:08:45.859Z,58.36
2023-02-09T09:11:14.990Z,56.61
2023-02-09T09:13:43.458Z,56.49
2023-02-09T09:16:17.046Z,55.56
2023-02-09T09:18:46.890Z,53.81
2023-02-09T09:21:16.386Z,52.74
2023-02-09T09:23:45.233Z,53.02
2023-02-09T09:26:13.333Z,52.91
2023-02-09T09:28:41.435Z,53.49
2023-02-09T09:31:11.072Z,53.77
2023-02-09T09:33:39.672Z,52.38
2023-02-09T09:36:10.160Z,52.33
2023-02-09T09:38:40.149Z,51.49
2023-02-09T09:41:20.344Z,52.06
2023-02-09T09:43:49.302Z,51.76
2023-02-09T09:46:20.455Z,50.81
2023-02-09T09:48:52.164Z,50.21
2023-02-09T09:51:27.742Z,50.89
2023-02-09T09:53:57.874Z,52.16
2023-02-09T09:56:27.257Z,50.67
2023-02-09T09:58:55.571Z,50.23
2023-02-09T10:01:24.340Z,50.46
2023-02-09T10:03:52.718Z,51.01
2023-02-09T10:06:23.955Z,50.48
2023-02-09T10:08:55.106Z,50.61
2023-02-09T10:11:30.653Z,50.38
2023-02-09T10:13:59.159Z,49.38
2023-02-09T10:16:30.556Z,49.02
2023-02-09T10:19:01.367Z,47.56
2023-02-09T10:21:32.988Z,47.44
2023-02-09T10:24:22.852Z,48.06
2023-02-09T10:27:09.275Z,48.51
2023-02-09T10:29:37.780Z,47.98
2023-02-09T10:32:14.946Z,47.96
2023-02-09T10:34:48.066Z,48.21
2023-02-09T10:37:22.090Z,48.21
2023-02-09T10:39:59.014Z,47.38
2023-02-09T10:42:31.574Z,46.42
2023-02-09T10:45:08.675Z,46.07
2023-02-09T10:47:36.768Z,46.09
2023-02-09T10:50:17.781Z,47.20
2023-02-09T10:53:01.080Z,45.05
2023-02-09T10:55:36.649Z,45.32
2023-02-09T10:58:07.812Z,43.08
2023-02-09T11:00:44.336Z,45.57
2023-02-09T11:03:18.902Z,47.20
2023-02-09T11:05:49.020Z,42.91
2023-02-09T11:08:23.952Z,44.27
2023-02-09T11:11:02.217Z,45.71
2023-02-09T11:13:32.435Z,45.25
2023-02-09T11:16:27.400Z,45.30
2023-02-09T11:19:01.596Z,43.96
2023-02-09T11:21:43.442Z,42.59
2023-02-09T11:24:26.406Z,42.71
2023-02-09T11:27:01.843Z,41.51
2023-02-09T11:29:36.416Z,42.50
2023-02-09T11:32:14.617Z,42.35
2023-02-09T11:35:01.472Z,41.66
2023-02-09T11:37:41.783Z,41.38
2023-02-09T11:40:24.057Z,41.28
2023-02-09T11:43:07.529Z,42.04
2023-02-09T11:45:40.870Z,39.55
2023-02-09T11:48:13.871Z,39.60
2023-02-09T11:50:57.329Z,39.19
2023-02-09T11:53:35.008Z,38.73
2023-02-09T11:56:07.198Z,38.59
2023-02-09T11:58:44.199Z,38.81
2023-02-09T12:01:27.493Z,39.11
2023-02-09T12:04:02.545Z,39.17
2023-02-09T12:06:37.046Z,39.96
2023-02-09T12:09:15.591Z,40.48
2023-02-09T12:11:53.959Z,40.34
2023-02-09T12:14:33.597Z,39.11
2023-02-09T12:17:09.425Z,39.03
2023-02-09T12:19:42.775Z,38.08
2023-02-09T12:22:46.327Z,38.82
2023-02-09T12:25:21.140Z,37.81
2023-02-09T12:28:17.376Z,37.49
2023-02-09T12:31:07.529Z,37.53
2023-02-09T12:33:38.471Z,37.08
2023-02-09T12:36:27.060Z,37.42
2023-02-09T12:39:24.928Z,38.02
2023-02-09T12:42:28.392Z,37.00
2023-02-09T12:44:59.779Z,37.34
2023-02-09T12:47:55.957Z,38.64
2023-02-09T12:50:33.248Z,36.81
2023-02-09T12:53:43.806Z,36.90
2023-02-09T12:56:35.465Z,37.74
2023-02-09T12:59:22.081Z,35.85
2023-02-09T13:02:16.077Z,36.15
2023-02-09T13:05:06.028Z,35.20
2023-02-09T13:07:47.029Z,36.19
2023-02-09T13:10:22.862Z,36.83
2023-02-09T13:12:58.144Z,37.15
2023-02-09T13:15:30.810Z,36.76
2023-02-09T13:18:14.239Z,37.05
2023-02-09T13:21:14.584Z,37.84
2023-02-09T13:23:56.732Z,37.57
2023-02-09T13:26:28.119Z,36.51
2023-02-09T13:29:20.502Z,37.39
2023-02-09T13:32:02.093Z,36.89
2023-02-09T13:34:37.054Z,36.67
2023-02-09T13:37:22.913Z,37.66
2023-02-09T13:39:58.077Z,37.14
2023-02-09T13:42:28.767Z,38.26
2023-02-09T13:44:59.367Z,38.08
2023-02-09T13:47:28.942Z,38.11
2023-02-09T13:50:00.558Z,37.06
2023-02-09T13:52:35.299Z,37.32
2023-02-09T13:55:13.692Z,38.89
2023-02-09T13:57:43.959Z,37.70
2023-02-09T14:00:22.877Z,37.54
2023-02-09T14:02:54.615Z,38.56
2023-02-09T14:05:32.267Z,38.21
2023-02-09T14:08:00.980Z,37.10
2023-02-09T14:10:30.833Z,36.48
2023-02-09T14:13:04.894Z,38.22
2023-02-09T14:15:55.479Z,37.88
2023-02-09T14:18:31.597Z,36.59
2023-02-09T14:21:04.991Z,36.74
2023-02-09T14:23:44.315Z,36.73
2023-02-09T14:26:26.190Z,37.15
2023-02-09T14:29:05.334Z,37.82
2023-02-09T14:31:37.798Z,37.22
2023-02-09T14:34:07.231Z,38.15
2023-02-09T14:36:38.261Z,39.23
2023-02-09T14:39:13.423Z,37.66
2023-02-09T14:41:41.972Z,37.05
2023-02-09T14:44:22.167Z,38.42
2023-02-09T14:46:53.469Z,37.82
2023-02-09T14:49:23.124Z,39.11
2023-02-09T14:52:05.853Z,38.11
2023-02-09T14:54:35.874Z,38.96
2023-02-09T14:57:04.804Z,37.53
2023-02-09T14:59:32.858Z,38.17
2023-02-09T15:02:01.510Z,39.36
2023-02-09T15:04:30.011Z,39.46
2023-02-09T15:07:03.142Z,39.07
2023-02-09T15:09:36.393Z,38.75
2023-02-09T15:12:08.082Z,39.63
2023-02-09T15:14:47.849Z,39.14
2023-02-09T15:17:19.534Z,39.62
2023-02-09T15:19:48.983Z,40.36
2023-02-09T15:22:20.277Z,40.04
2023-02-09T15:24:50.282Z,40.48
2023-02-09T15:27:37.607Z,40.85
2023-02-09T15:30:12.099Z,40.12
2023-02-09T15:32:40.353Z,40.96
2023-02-09T15:35:09.782Z,40.86
2023-02-09T15:37:41.194Z,41.25
2023-02-09T15:40:44.185Z,41.83
2023-02-09T15:43:31.836Z,42.15
2023-02-09T15:46:18.035Z,42.86
2023-02-09T15:48:46.601Z,42.82
2023-02-09T15:51:16.425Z,42.43
2023-02-09T15:53:48.173Z,42.27
2023-02-09T15:56:17.200Z,42.87
2023-02-09T15:58:48.399Z,43.09
2023-02-09T16:01:19.233Z,43.90
2023-02-09T16:03:48.149Z,43.09
2023-02-09T16:06:20.170Z,43.31
2023-02-09T16:08:52.688Z,43.50
2023-02-09T16:11:24.872Z,43.81
2023-02-09T16:13:52.986Z,43.03
2023-02-09T16:16:21.541Z,43.38
2023-02-09T16:18:50.277Z,43.42
2023-02-09T16:21:25.614Z,43.11
2023-02-09T16:23:57.862Z,43.56
2023-02-09T16:26:28.478Z,43.39
2023-02-09T16:28:57.344Z,43.53
2023-02-09T16:31:26.516Z,44.28
2023-02-09T16:33:55.396Z,43.92
2023-02-09T16:36:25.744Z,44.16
2023-02-09T16:38:55.484Z,44.39
2023-02-09T16:41:41.194Z,44.32
2023-02-09T16:44:17.727Z,44.16
2023-02-09T16:46:47.586Z,44.68
2023-02-09T16:49:31.568Z,45.49
2023-02-09T16:52:03.829Z,45.64
2023-02-09T16:54:39.260Z,46.42
2023-02-09T16:57:07.476Z,47.03
2023-02-09T16:59:37.954Z,46.93
2023-02-09T17:02:18.004Z,47.91
2023-02-09T17:04:48.771Z,47.28
2023-02-09T17:07:17.032Z,47.99
2023-02-09T17:09:47.182Z,47.88
2023-02-09T17:12:15.803Z,48.54
2023-02-09T17:14:44.333Z,47.95
2023-02-09T17:17:18.177Z,47.67
2023-02-09T17:19:48.132Z,47.63
2023-02-09T17:22:18.670Z,47.87
2023-02-09T17:24:49.324Z,48.17
2023-02-09T17:27:17.470Z,48.30
2023-02-09T17:29:45.533Z,47.77
2023-02-09T17:32:16.878Z,48.38
2023-02-09T17:34:45.156Z,48.70
2023-02-09T17:37:16.922Z,48.97
2023-02-09T17:39:45.423Z,49.12
2023-02-09T17:42:24.563Z,49.34
2023-02-09T17:45:02.498Z,48.85
2023-02-09T17:47:32.005Z,49.32
2023-02-09T17:50:00.746Z,49.59
2023-02-09T17:52:29.172Z,50.05
2023-02-09T17:54:58.168Z,49.61
2023-02-09T17:57:28.090Z,50.15
2023-02-09T17:59:58.213Z,50.34
2023-02-09T18:02:26.609Z,50.36
2023-02-09T18:04:55.525Z,50.46
2023-02-09T18:07:23.764Z,50.73
2023-02-09T18:09:54.572Z,50.54
2023-02-09T18:12:27.166Z,51.29
2023-02-09T18:14:57.248Z,51.70
2023-02-09T18:17:25.673Z,51.76
2023-02-09T18:19:56.910Z,52.29
2023-02-09T18:22:25.068Z,52.58
2023-02-09T18:24:54.488Z,52.13
2023-02-09T18:27:25.818Z,52.89
2023-02-09T18:29:56.528Z,52.50
2023-02-09T18:32:26.521Z,52.98
2023-02-09T18:34:55.418Z,52.55
2023-02-09T18:37:23.753Z,53.10
2023-02-09T18:39:52.339Z,53.20
2023-02-09T18:42:22.039Z,54.10
2023-02-09T18:44:50.511Z,53.96
2023-02-09T18:47:19.349Z,54.19
2023-02-09T18:49:49.660Z,54.53
2023-02-09T18:52:19.128Z,54.79
2023-02-09T18:54:47.932Z,54.90
2023-02-09T18:57:16.204Z,55.27
2023-02-09T18:59:47.628Z,55.06
2023-02-09T19:02:16.813Z,55.64
2023-02-09T19:04:53.121Z,55.82
2023-02-09T19:07:21.263Z,56.08
2023-02-09T19:09:50.474Z,56.53
2023-02-09T19:12:19.373Z,56.58
2023-02-09T19:14:49.403Z,56.96
2023-02-09T19:17:22.751Z,57.48
2023-02-09T19:19:53.340Z,57.57
2023-02-09T19:22:23.553Z,57.66
2023-02-09T19:24:53.431Z,57.62
2023-02-09T19:27:21.635Z,57.91
2023-02-09T19:29:55.017Z,57.58
2023-02-09T19:32:25.405Z,57.91
2023-02-09T19:34:56.047Z,57.87
2023-02-09T19:37:24.324Z,58.07
2023-02-09T19:40:04.945Z,58.31
2023-02-09T19:42:33.630Z,58.29
2023-02-09T19:45:03.243Z,58.35
2023-02-09T19:47:31.404Z,58.09
2023-02-09T19:50:02.507Z,58.50
2023-02-09T19:52:31.332Z,58.26
2023-02-09T19:55:02.916Z,58.79
2023-02-09T19:57:31.539Z,59.08
2023-02-09T19:59:59.860Z,59.73
2023-02-09T20:02:28.108Z,59.58
2023-02-09T20:04:56.920Z,59.73
2023-02-09T20:07:26.551Z,59.78
2023-02-09T20:09:57.365Z,59.21
2023-02-09T20:12:25.724Z,59.90
2023-02-09T20:14:54.990Z,59.52
2023-02-09T20:17:23.296Z,59.53
2023-02-09T20:19:52.976Z,60.04
2023-02-09T20:22:21.411Z,60.02
2023-02-09T20:24:50.992Z,60.65
2023-02-09T20:27:19.953Z,59.86
2023-02-09T20:30:07.446Z,60.08
2023-02-09T20:32:36.856Z,60.60
2023-02-09T20:35:06.556Z,60.52
2023-02-09T20:37:36.407Z,60.62
2023-02-09T20:40:11.168Z,60.98
2023-02-09T20:42:57.449Z,61.60
2023-02-09T20:45:43.461Z,61.67
2023-02-09T20:48:11.579Z,61.89
2023-02-09T20:50:39.648Z,62.37
2023-02-09T20:53:07.885Z,61.79
2023-02-09T20:55:38.087Z,62.38
2023-02-09T20:58:06.326Z,62.51
2023-02-09T21:00:34.568Z,61.98
2023-02-09T21:03:02.783Z,62.01
2023-02-09T21:05:31.065Z,62.38
2023-02-09T21:07:59.246Z,62.20
2023-02-09T21:10:27.319Z,63.15
2023-02-09T21:12:56.914Z,62.58
2023-02-09T21:15:24.904Z,62.87
2023-02-09T21:17:52.978Z,62.93
2023-02-09T21:20:21.648Z,63.31
2023-02-09T21:22:50.328Z,63.56
2023-02-09T21:25:19.548Z,64.30
2023-02-09T21:27:47.961Z,64.48
2023-02-09T21:30:17.918Z,64.71
2023-02-09T21:32:46.096Z,64.97
2023-02-09T21:35:14.326Z,65.23
2023-02-09T21:37:43.019Z,65.91
2023-02-09T21:40:12.722Z,66.41
2023-02-09T21:42:41.221Z,66.23
2023-02-09T21:45:10.313Z,66.88
2023-02-09T21:47:41.560Z,66.36
2023-02-09T21:50:12.985Z,66.72
2023-02-09T21:52:41.037Z,66.04
2023-02-09T21:55:09.846Z,65.73
2023-02-09T21:57:38.374Z,65.07
2023-02-09T22:00:09.076Z,65.42
2023-02-09T22:02:37.515Z,64.70
2023-02-09T22:05:08.540Z,65.32
2023-02-09T22:07:37.171Z,65.05
2023-02-09T22:10:06.407Z,65.04
2023-02-09T22:12:36.493Z,65.27
2023-02-09T22:15:04.957Z,65.23
2023-02-09T22:17:33.092Z,65.05
2023-02-09T22:20:01.218Z,65.52
2023-02-09T22:22:30.931Z,65.73
2023-02-09T22:24:59.199Z,65.02
2023-02-09T22:27:27.541Z,65.66
2023-02-09T22:29:55.533Z,66.17
2023-02-09T22:32:23.900Z,65.09
2023-02-09T22:34:52.027Z,65.51
2023-02-09T22:37:20.102Z,65.03
2023-02-09T22:39:50.088Z,65.53
2023-02-09T22:42:18.177Z,65.81
2023-02-09T22:44:46.641Z,66.13
2023-02-09T22:47:14.735Z,66.28
2023-02-09T22:49:46.145Z,65.03
2023-02-09T22:52:14.325Z,65.57
2023-02-09T22:54:42.452Z,64.70
2023-02-09T22:57:11.900Z,65.27
2023-02-09T22:59:40.098Z,65.37
2023-02-09T23:02:08.274Z,66.36
2023-02-09T23:04:36.215Z,67.03
2023-02-09T23:07:05.225Z,66.99
2023-02-09T23:09:33.487Z,66.70
2023-02-09T23:12:01.641Z,66.63
2023-02-09T23:14:31.205Z,67.38
2023-02-09T23:16:59.805Z,67.79
2023-02-09T23:19:28.161Z,68.59
2023-02-09T23:21:56.344Z,68.76
2023-02-09T23:24:25.276Z,69.59
2023-02-09T23:26:53.531Z,70.11
2023-02-09T23:29:22.462Z,70.60
2023-02-09T23:31:52.249Z,69.83
2023-02-09T23:34:21.876Z,70.58
2023-02-09T23:36:50.052Z,71.04
2023-02-09T23:39:20.359Z,71.10
2023-02-09T23:41:48.888Z,72.04
2023-02-09T23:44:16.892Z,72.61
2023-02-09T23:46:45.822Z,74.14
2023-02-09T23:49:15.321Z,74.67
2023-02-09T23:51:45.173Z,74.85
2023-02-09T23:54:13.236Z,74.86
2023-02-09T23:56:41.584Z,75.49
2023-02-09T23:59:12.757Z,76.12
